sensor_id;sensor_type;location;lat;lon;timestamp;pressure;altitude;pressure_sealevel;temperature;humidity
75855;BME280;64502;59.976;30.316;2022-12-20T00:02:01;101661.94;;;1.05;81.96
75855;BME280;64502;59.976;30.316;2022-12-20T00:04:26;101655.03;;;1.04;81.99
75855;BME280;64502;59.976;30.316;2022-12-20T00:06:52;101652.41;;;1.04;82.35
75855;BME280;64502;59.976;30.316;2022-12-20T00:09:18;101658.44;;;1.09;82.22
75855;BME280;64502;59.976;30.316;2022-12-20T00:11:43;101654.09;;;1.13;82.19
75855;BME280;64502;59.976;30.316;2022-12-20T00:14:09;101652.38;;;1.13;81.62
75855;BME280;64502;59.976;30.316;2022-12-20T00:16:35;101644.59;;;1.10;81.17
75855;BME280;64502;59.976;30.316;2022-12-20T00:19:03;101647.22;;;1.04;81.58
75855;BME280;64502;59.976;30.316;2022-12-20T00:21:30;101644.66;;;0.92;82.00
75855;BME280;64502;59.976;30.316;2022-12-20T00:23:57;101640.34;;;0.87;81.33
75855;BME280;64502;59.976;30.316;2022-12-20T00:26:25;101649.00;;;0.83;81.55
75855;BME280;64502;59.976;30.316;2022-12-20T00:28:51;101640.34;;;0.81;81.63
75855;BME280;64502;59.976;30.316;2022-12-20T00:31:18;101630.84;;;0.80;81.57
75855;BME280;64502;59.976;30.316;2022-12-20T00:33:46;101620.47;;;0.82;81.81
75855;BME280;64502;59.976;30.316;2022-12-20T00:36:13;101628.22;;;0.85;81.57
75855;BME280;64502;59.976;30.316;2022-12-20T00:38:38;101624.75;;;0.81;81.04
75855;BME280;64502;59.976;30.316;2022-12-20T00:43:31;101623.06;;;0.82;80.09
75855;BME280;64502;59.976;30.316;2022-12-20T00:45:57;101620.47;;;0.82;79.47
75855;BME280;64502;59.976;30.316;2022-12-20T00:48:23;101613.53;;;0.75;77.70
75855;BME280;64502;59.976;30.316;2022-12-20T00:50:50;101626.56;;;0.69;77.63
75855;BME280;64502;59.976;30.316;2022-12-20T00:53:15;101611.81;;;0.68;77.59
75855;BME280;64502;59.976;30.316;2022-12-20T00:55:42;101612.72;;;0.60;76.57
75855;BME280;64502;59.976;30.316;2022-12-20T00:58:08;101611.88;;;0.48;76.45
75855;BME280;64502;59.976;30.316;2022-12-20T01:00:35;101616.19;;;0.50;77.26
75855;BME280;64502;59.976;30.316;2022-12-20T01:03:00;101613.59;;;0.49;76.94
75855;BME280;64502;59.976;30.316;2022-12-20T01:05:26;101610.13;;;0.43;76.27
75855;BME280;64502;59.976;30.316;2022-12-20T01:07:51;101604.09;;;0.40;76.48
75855;BME280;64502;59.976;30.316;2022-12-20T01:10:17;101597.19;;;0.31;76.11
75855;BME280;64502;59.976;30.316;2022-12-20T01:12:43;101601.53;;;0.20;76.20
75855;BME280;64502;59.976;30.316;2022-12-20T01:15:09;101594.63;;;0.14;75.08
75855;BME280;64502;59.976;30.316;2022-12-20T01:17:35;101583.38;;;0.08;75.59
75855;BME280;64502;59.976;30.316;2022-12-20T01:20:01;101573.00;;;0.05;76.11
75855;BME280;64502;59.976;30.316;2022-12-20T01:22:26;101573.00;;;0.02;75.18
75855;BME280;64502;59.976;30.316;2022-12-20T01:24:52;101569.56;;;-0.04;75.53
75855;BME280;64502;59.976;30.316;2022-12-20T01:27:17;101572.19;;;-0.08;74.82
75855;BME280;64502;59.976;30.316;2022-12-20T01:29:43;101569.56;;;-0.13;75.62
75855;BME280;64502;59.976;30.316;2022-12-20T01:32:09;101569.56;;;-0.13;75.56
75855;BME280;64502;59.976;30.316;2022-12-20T01:34:34;101571.28;;;-0.15;75.51
75855;BME280;64502;59.976;30.316;2022-12-20T01:37:00;101573.03;;;-0.15;75.47
75855;BME280;64502;59.976;30.316;2022-12-20T01:39:25;101573.88;;;-0.18;75.56
75855;BME280;64502;59.976;30.316;2022-12-20T01:41:51;101575.63;;;-0.18;75.74
75855;BME280;64502;59.976;30.316;2022-12-20T01:46:43;101568.69;;;-0.23;74.90
75855;BME280;64502;59.976;30.316;2022-12-20T01:49:11;101567.84;;;-0.21;76.03
75855;BME280;64502;59.976;30.316;2022-12-20T01:51:44;101563.53;;;-0.18;74.35
75855;BME280;64502;59.976;30.316;2022-12-20T01:54:21;101568.72;;;-0.21;74.38
75855;BME280;64502;59.976;30.316;2022-12-20T01:56:55;101563.53;;;-0.21;74.72
75855;BME280;64502;59.976;30.316;2022-12-20T01:59:21;101561.78;;;-0.25;74.33
75855;BME280;64502;59.976;30.316;2022-12-20T02:01:47;101572.16;;;-0.27;73.58
75855;BME280;64502;59.976;30.316;2022-12-20T02:04:13;101568.72;;;-0.24;74.34
75855;BME280;64502;59.976;30.316;2022-12-20T02:06:38;101559.19;;;-0.22;74.86
75855;BME280;64502;59.976;30.316;2022-12-20T02:09:05;101554.00;;;-0.22;74.15
75855;BME280;64502;59.976;30.316;2022-12-20T02:12:00;101554.00;;;-0.25;74.20
75855;BME280;64502;59.976;30.316;2022-12-20T02:31:24;101544.44;;;-0.80;73.63
75855;BME280;64502;59.976;30.316;2022-12-20T02:33:52;101542.72;;;-0.88;74.36
75855;BME280;64502;59.976;30.316;2022-12-20T02:36:20;101537.53;;;-0.92;73.77
75855;BME280;64502;59.976;30.316;2022-12-20T02:38:45;101532.34;;;-0.92;74.17
75855;BME280;64502;59.976;30.316;2022-12-20T02:43:54;101527.16;;;-0.88;74.01
75855;BME280;64502;59.976;30.316;2022-12-20T02:46:40;101514.22;;;-0.88;73.45
75855;BME280;64502;59.976;30.316;2022-12-20T02:49:11;101521.09;;;-0.91;72.86
75855;BME280;64502;59.976;30.316;2022-12-20T02:51:38;101516.81;;;-0.90;74.07
75855;BME280;64502;59.976;30.316;2022-12-20T02:54:05;101509.03;;;-0.88;72.56
75855;BME280;64502;59.976;30.316;2022-12-20T02:56:49;101515.06;;;-0.88;73.46
75855;BME280;64502;59.976;30.316;2022-12-20T02:59:20;101503.88;;;-0.87;72.62
75855;BME280;64502;59.976;30.316;2022-12-20T03:01:53;101504.72;;;-0.86;72.93
75855;BME280;64502;59.976;30.316;2022-12-20T03:04:23;101501.28;;;-0.84;72.66
75855;BME280;64502;59.976;30.316;2022-12-20T03:07:02;101490.06;;;-0.84;73.20
75855;BME280;64502;59.976;30.316;2022-12-20T03:09:33;101484.84;;;-0.89;73.49
75855;BME280;64502;59.976;30.316;2022-12-20T03:12:00;101484.84;;;-0.91;73.05
75855;BME280;64502;59.976;30.316;2022-12-20T03:14:26;101491.78;;;-0.90;72.93
75855;BME280;64502;59.976;30.316;2022-12-20T03:16:51;101487.44;;;-0.89;72.90
75855;BME280;64502;59.976;30.316;2022-12-20T03:19:18;101494.34;;;-0.86;73.26
75855;BME280;64502;59.976;30.316;2022-12-20T03:21:43;101489.19;;;-0.86;72.45
75855;BME280;64502;59.976;30.316;2022-12-20T03:24:09;101493.50;;;-0.88;72.88
75855;BME280;64502;59.976;30.316;2022-12-20T03:26:36;101485.72;;;-0.90;72.32
75855;BME280;64502;59.976;30.316;2022-12-20T03:29:02;101489.16;;;-0.91;72.91
75855;BME280;64502;59.976;30.316;2022-12-20T03:31:28;101483.09;;;-0.93;72.63
75855;BME280;64502;59.976;30.316;2022-12-20T03:33:54;101474.50;;;-0.92;72.71
75855;BME280;64502;59.976;30.316;2022-12-20T03:36:19;101469.28;;;-0.91;72.85
75855;BME280;64502;59.976;30.316;2022-12-20T03:38:52;101459.81;;;-0.90;72.30
75855;BME280;64502;59.976;30.316;2022-12-20T03:41:19;101454.63;;;-0.95;72.83
75855;BME280;64502;59.976;30.316;2022-12-20T03:43:47;101446.84;;;-0.96;72.45
75855;BME280;64502;59.976;30.316;2022-12-20T03:46:13;101442.53;;;-1.02;72.64
75855;BME280;64502;59.976;30.316;2022-12-20T03:48:39;101441.66;;;-1.02;72.67
75855;BME280;64502;59.976;30.316;2022-12-20T03:51:05;101438.22;;;-1.06;72.18
75855;BME280;64502;59.976;30.316;2022-12-20T03:53:31;101432.16;;;-1.13;72.95
75855;BME280;64502;59.976;30.316;2022-12-20T03:55:56;101442.50;;;-1.16;72.58
75855;BME280;64502;59.976;30.316;2022-12-20T03:58:22;101434.72;;;-1.22;72.64
75855;BME280;64502;59.976;30.316;2022-12-20T04:00:47;101431.25;;;-1.28;72.32
75855;BME280;64502;59.976;30.316;2022-12-20T04:03:13;101433.00;;;-1.33;72.26
75855;BME280;64502;59.976;30.316;2022-12-20T04:05:38;101431.25;;;-1.36;73.44
75855;BME280;64502;59.976;30.316;2022-12-20T04:08:04;101432.97;;;-1.38;72.24
75855;BME280;64502;59.976;30.316;2022-12-20T04:10:29;101426.09;;;-1.39;72.62
75855;BME280;64502;59.976;30.316;2022-12-20T04:12:55;101422.59;;;-1.49;72.60
75855;BME280;64502;59.976;30.316;2022-12-20T04:15:20;101422.56;;;-1.60;73.41
75855;BME280;64502;59.976;30.316;2022-12-20T04:17:46;101420.84;;;-1.64;73.10
75855;BME280;64502;59.976;30.316;2022-12-20T04:20:14;101413.94;;;-1.66;73.79
75855;BME280;64502;59.976;30.316;2022-12-20T04:22:47;101405.28;;;-1.65;73.27
75855;BME280;64502;59.976;30.316;2022-12-20T04:25:15;101407.84;;;-1.67;72.57
75855;BME280;64502;59.976;30.316;2022-12-20T04:27:41;101396.66;;;-1.72;73.13
75855;BME280;64502;59.976;30.316;2022-12-20T04:30:07;101394.06;;;-1.72;73.62
75855;BME280;64502;59.976;30.316;2022-12-20T04:32:33;101398.34;;;-1.79;73.62
75855;BME280;64502;59.976;30.316;2022-12-20T04:34:58;101398.34;;;-1.79;73.62
75855;BME280;64502;59.976;30.316;2022-12-20T04:37:23;101400.03;;;-1.84;73.58
75855;BME280;64502;59.976;30.316;2022-12-20T04:39:49;101400.06;;;-1.82;73.80
75855;BME280;64502;59.976;30.316;2022-12-20T04:42:14;101391.44;;;-1.81;73.21
75855;BME280;64502;59.976;30.316;2022-12-20T04:44:40;101397.47;;;-1.85;73.52
75855;BME280;64502;59.976;30.316;2022-12-20T04:47:05;101391.41;;;-1.89;73.05
75855;BME280;64502;59.976;30.316;2022-12-20T04:49:31;101390.56;;;-1.91;73.20
75855;BME280;64502;59.976;30.316;2022-12-20T04:51:56;101387.06;;;-1.99;73.62
75855;BME280;64502;59.976;30.316;2022-12-20T04:54:42;101384.50;;;-1.99;73.75
75855;BME280;64502;59.976;30.316;2022-12-20T04:57:07;101381.03;;;-1.98;73.82
75855;BME280;64502;59.976;30.316;2022-12-20T04:59:34;101376.72;;;-1.99;72.45
75855;BME280;64502;59.976;30.316;2022-12-20T05:02:00;101374.97;;;-2.00;73.45
75855;BME280;64502;59.976;30.316;2022-12-20T05:04:25;101380.16;;;-1.97;73.27
75855;BME280;64502;59.976;30.316;2022-12-20T05:06:51;101374.16;;;-1.96;72.34
75855;BME280;64502;59.976;30.316;2022-12-20T05:09:17;101372.41;;;-2.00;71.64
75855;BME280;64502;59.976;30.316;2022-12-20T05:11:43;101371.53;;;-2.07;70.91
75855;BME280;64502;59.976;30.316;2022-12-20T05:14:08;101374.91;;;-2.17;71.04
75855;BME280;64502;59.976;30.316;2022-12-20T05:16:35;101369.69;;;-2.25;71.41
75855;BME280;64502;59.976;30.316;2022-12-20T05:19:02;101377.47;;;-2.29;71.15
75855;BME280;64502;59.976;30.316;2022-12-20T05:21:29;101367.06;;;-2.35;71.24
75855;BME280;64502;59.976;30.316;2022-12-20T05:24:13;101373.91;;;-2.43;70.98
75855;BME280;64502;59.976;30.316;2022-12-20T05:26:57;101379.84;;;-2.57;70.52
75855;BME280;64502;59.976;30.316;2022-12-20T05:29:23;101369.47;;;-2.66;70.36
75855;BME280;64502;59.976;30.316;2022-12-20T05:31:48;101379.75;;;-2.74;71.03
75855;BME280;64502;59.976;30.316;2022-12-20T05:34:14;101381.41;;;-2.83;71.44
75855;BME280;64502;59.976;30.316;2022-12-20T05:36:39;101377.91;;;-2.90;71.76
75855;BME280;64502;59.976;30.316;2022-12-20T05:39:04;101378.72;;;-2.96;71.90
75855;BME280;64502;59.976;30.316;2022-12-20T05:41:30;101378.63;;;-3.08;71.71
75855;BME280;64502;59.976;30.316;2022-12-20T05:43:57;101378.47;;;-3.26;72.46
75855;BME280;64502;59.976;30.316;2022-12-20T05:46:23;101371.47;;;-3.37;72.92
75855;BME280;64502;59.976;30.316;2022-12-20T05:48:48;101373.19;;;-3.40;73.71
75855;BME280;64502;59.976;30.316;2022-12-20T05:51:13;101363.72;;;-3.40;73.26
75855;BME280;64502;59.976;30.316;2022-12-20T05:53:39;101373.16;;;-3.42;72.63
75855;BME280;64502;59.976;30.316;2022-12-20T05:56:05;101369.72;;;-3.42;71.82
75855;BME280;64502;59.976;30.316;2022-12-20T05:58:31;101366.25;;;-3.44;72.30
75855;BME280;64502;59.976;30.316;2022-12-20T06:01:03;101367.13;;;-3.45;71.85
75855;BME280;64502;59.976;30.316;2022-12-20T06:03:29;101373.94;;;-3.52;70.64
75855;BME280;64502;59.976;30.316;2022-12-20T06:05:55;101368.69;;;-3.60;70.62
75855;BME280;64502;59.976;30.316;2022-12-20T06:08:20;101370.06;;;-3.91;68.89
75855;BME280;64502;59.976;30.316;2022-12-20T06:10:48;101360.28;;;-4.18;69.65
75855;BME280;64502;59.976;30.316;2022-12-20T06:13:13;101355.78;;;-4.34;70.34
75855;BME280;64502;59.976;30.316;2022-12-20T06:15:39;101362.56;;;-4.39;71.59
75855;BME280;64502;59.976;30.316;2022-12-20T06:18:05;101357.50;;;-4.36;71.02
75855;BME280;64502;59.976;30.316;2022-12-20T06:20:31;101363.53;;;-4.33;71.38
75855;BME280;64502;59.976;30.316;2022-12-20T06:22:57;101365.28;;;-4.29;71.76
75855;BME280;64502;59.976;30.316;2022-12-20T06:25:23;101371.34;;;-4.27;70.62
75855;BME280;64502;59.976;30.316;2022-12-20T06:27:49;101382.50;;;-4.28;70.84
75855;BME280;64502;59.976;30.316;2022-12-20T06:30:15;101374.69;;;-4.32;70.69
75855;BME280;64502;59.976;30.316;2022-12-20T06:32:41;101366.91;;;-4.37;71.90
75855;BME280;64502;59.976;30.316;2022-12-20T06:35:07;101367.75;;;-4.38;71.68
75855;BME280;64502;59.976;30.316;2022-12-20T06:37:32;101364.28;;;-4.41;71.28
75855;BME280;64502;59.976;30.316;2022-12-20T06:39:58;101366.88;;;-4.40;71.70
75855;BME280;64502;59.976;30.316;2022-12-20T06:42:24;101360.81;;;-4.43;71.42
75855;BME280;64502;59.976;30.316;2022-12-20T06:44:50;101368.53;;;-4.43;71.40
75855;BME280;64502;59.976;30.316;2022-12-20T06:47:15;101369.44;;;-4.41;71.33
75855;BME280;64502;59.976;30.316;2022-12-20T06:49:41;101384.84;;;-4.43;70.78
75855;BME280;64502;59.976;30.316;2022-12-20T06:52:06;101386.56;;;-4.43;71.06
75855;BME280;64502;59.976;30.316;2022-12-20T06:54:31;101383.06;;;-4.50;71.46
75855;BME280;64502;59.976;30.316;2022-12-20T06:56:57;101376.16;;;-4.53;71.56
75855;BME280;64502;59.976;30.316;2022-12-20T06:59:22;101376.94;;;-4.58;71.57
75855;BME280;64502;59.976;30.316;2022-12-20T07:01:48;101375.97;;;-4.65;71.18
75855;BME280;64502;59.976;30.316;2022-12-20T07:04:13;101374.22;;;-4.68;71.43
75855;BME280;64502;59.976;30.316;2022-12-20T07:06:39;101370.72;;;-4.71;71.49
75855;BME280;64502;59.976;30.316;2022-12-20T07:09:04;101362.97;;;-4.74;71.44
75855;BME280;64502;59.976;30.316;2022-12-20T07:11:30;101378.38;;;-4.77;71.05
75855;BME280;64502;59.976;30.316;2022-12-20T07:13:56;101380.88;;;-4.80;70.97
75855;BME280;64502;59.976;30.316;2022-12-20T07:16:23;101382.53;;;-4.85;70.81
75855;BME280;64502;59.976;30.316;2022-12-20T07:18:49;101384.22;;;-4.87;71.36
75855;BME280;64502;59.976;30.316;2022-12-20T07:21:15;101373.00;;;-4.91;71.66
75855;BME280;64502;59.976;30.316;2022-12-20T07:23:41;101378.16;;;-4.91;71.11
75855;BME280;64502;59.976;30.316;2022-12-20T07:26:08;101382.41;;;-4.93;71.36
75855;BME280;64502;59.976;30.316;2022-12-20T07:28:33;101379.78;;;-4.95;71.72
75855;BME280;64502;59.976;30.316;2022-12-20T07:31:00;101388.31;;;-4.99;71.18
75855;BME280;64502;59.976;30.316;2022-12-20T07:33:27;101383.13;;;-5.00;71.26
75855;BME280;64502;59.976;30.316;2022-12-20T07:36:02;101385.66;;;-5.03;71.24
75855;BME280;64502;59.976;30.316;2022-12-20T07:38:28;101378.84;;;-5.01;71.59
75855;BME280;64502;59.976;30.316;2022-12-20T07:40:54;101386.56;;;-5.00;71.37
75855;BME280;64502;59.976;30.316;2022-12-20T07:43:19;101388.31;;;-4.99;71.65
75855;BME280;64502;59.976;30.316;2022-12-20T07:45:45;101375.50;;;-4.96;71.27
75855;BME280;64502;59.976;30.316;2022-12-20T07:48:11;101369.59;;;-4.88;71.67
75855;BME280;64502;59.976;30.316;2022-12-20T07:50:39;101374.09;;;-4.77;71.75
75855;BME280;64502;59.976;30.316;2022-12-20T07:53:06;101362.13;;;-4.73;69.17
75855;BME280;64502;59.976;30.316;2022-12-20T07:55:32;101357.78;;;-4.77;68.90
75855;BME280;64502;59.976;30.316;2022-12-20T07:58:03;101353.19;;;-4.95;68.76
75855;BME280;64502;59.976;30.316;2022-12-20T08:00:30;101342.88;;;-4.97;70.11
75855;BME280;64502;59.976;30.316;2022-12-20T08:03:08;101339.41;;;-5.00;69.97
75855;BME280;64502;59.976;30.316;2022-12-20T08:05:37;101340.13;;;-5.09;70.33
75855;BME280;64502;59.976;30.316;2022-12-20T08:08:06;101339.09;;;-5.20;69.43
75855;BME280;64502;59.976;30.316;2022-12-20T08:10:32;101344.13;;;-5.26;70.49
75855;BME280;64502;59.976;30.316;2022-12-20T08:12:58;101342.28;;;-5.33;70.67
75855;BME280;64502;59.976;30.316;2022-12-20T08:15:24;101343.81;;;-5.43;70.33
75855;BME280;64502;59.976;30.316;2022-12-20T08:17:50;101334.31;;;-5.49;70.79
75855;BME280;64502;59.976;30.316;2022-12-20T08:20:17;101336.78;;;-5.55;70.72
75855;BME280;64502;59.976;30.316;2022-12-20T08:22:42;101334.16;;;-5.58;70.83
75855;BME280;64502;59.976;30.316;2022-12-20T08:25:08;101335.91;;;-5.55;70.71
75855;BME280;64502;59.976;30.316;2022-12-20T08:27:34;101340.97;;;-5.62;70.68
75855;BME280;64502;59.976;30.316;2022-12-20T08:29:59;101339.34;;;-5.56;70.24
75855;BME280;64502;59.976;30.316;2022-12-20T08:32:25;101343.53;;;-5.60;70.67
75855;BME280;64502;59.976;30.316;2022-12-20T08:34:51;101346.97;;;-5.61;70.48
75855;BME280;64502;59.976;30.316;2022-12-20T08:37:17;101346.91;;;-5.64;70.47
75855;BME280;64502;59.976;30.316;2022-12-20T08:39:43;101350.25;;;-5.70;70.06
75855;BME280;64502;59.976;30.316;2022-12-20T08:42:11;101341.56;;;-5.75;68.92
75855;BME280;64502;59.976;30.316;2022-12-20T08:44:41;101341.31;;;-5.87;69.14
75855;BME280;64502;59.976;30.316;2022-12-20T08:47:08;101334.47;;;-5.87;69.13
75855;BME280;64502;59.976;30.316;2022-12-20T08:49:34;101336.34;;;-5.80;70.04
75855;BME280;64502;59.976;30.316;2022-12-20T08:52:00;101351.75;;;-5.80;68.89
75855;BME280;64502;59.976;30.316;2022-12-20T08:54:25;101337.91;;;-5.88;68.87
75855;BME280;64502;59.976;30.316;2022-12-20T08:56:51;101331.94;;;-5.85;69.79
75855;BME280;64502;59.976;30.316;2022-12-20T08:59:17;101333.75;;;-5.80;69.61
75855;BME280;64502;59.976;30.316;2022-12-20T09:01:45;101334.78;;;-5.71;69.57
75855;BME280;64502;59.976;30.316;2022-12-20T09:04:11;101343.59;;;-5.59;69.32
75855;BME280;64502;59.976;30.316;2022-12-20T09:06:38;101337.50;;;-5.62;67.84
75855;BME280;64502;59.976;30.316;2022-12-20T09:09:04;101325.53;;;-5.60;68.49
75855;BME280;64502;59.976;30.316;2022-12-20T09:11:29;101329.72;;;-5.65;68.24
75855;BME280;64502;59.976;30.316;2022-12-20T09:13:57;101325.41;;;-5.68;68.87
75855;BME280;64502;59.976;30.316;2022-12-20T09:16:28;101319.41;;;-5.68;68.22
75855;BME280;64502;59.976;30.316;2022-12-20T09:18:55;101308.41;;;-5.61;69.54
75855;BME280;64502;59.976;30.316;2022-12-20T09:21:21;101300.06;;;-5.48;69.01
75855;BME280;64502;59.976;30.316;2022-12-20T09:23:50;101292.56;;;-5.34;68.44
75855;BME280;64502;59.976;30.316;2022-12-20T09:26:16;101290.81;;;-5.37;68.47
75855;BME280;64502;59.976;30.316;2022-12-20T09:28:43;101286.63;;;-5.30;68.96
75855;BME280;64502;59.976;30.316;2022-12-20T09:31:13;101288.38;;;-5.27;68.40
75855;BME280;64502;59.976;30.316;2022-12-20T09:33:40;101287.66;;;-5.19;68.71
75855;BME280;64502;59.976;30.316;2022-12-20T09:36:06;101286.13;;;-5.07;68.85
75855;BME280;64502;59.976;30.316;2022-12-20T09:38:32;101279.44;;;-4.95;68.35
75855;BME280;64502;59.976;30.316;2022-12-20T09:41:00;101278.69;;;-4.87;67.48
75855;BME280;64502;59.976;30.316;2022-12-20T09:43:28;101270.16;;;-4.83;66.62
75855;BME280;64502;59.976;30.316;2022-12-20T09:45:56;101265.94;;;-4.80;67.75
75855;BME280;64502;59.976;30.316;2022-12-20T09:48:34;101272.00;;;-4.73;67.34
75855;BME280;64502;59.976;30.316;2022-12-20T09:56:26;101266.81;;;-4.76;66.39
75855;BME280;64502;59.976;30.316;2022-12-20T10:01:22;101269.47;;;-4.72;66.75
75855;BME280;64502;59.976;30.316;2022-12-20T10:03:49;101271.22;;;-4.68;66.39
75855;BME280;64502;59.976;30.316;2022-12-20T10:06:26;101269.44;;;-4.73;65.64
75855;BME280;64502;59.976;30.316;2022-12-20T10:09:04;101275.44;;;-4.73;66.02
75855;BME280;64502;59.976;30.316;2022-12-20T10:22:53;101275.50;;;-4.68;65.43
75855;BME280;64502;59.976;30.316;2022-12-20T10:25:23;101272.91;;;-4.70;65.02
75855;BME280;64502;59.976;30.316;2022-12-20T10:27:53;101269.47;;;-4.72;64.18
75855;BME280;64502;59.976;30.316;2022-12-20T10:30:25;101271.16;;;-4.74;64.63
75855;BME280;64502;59.976;30.316;2022-12-20T10:32:52;101265.06;;;-4.79;65.18
75855;BME280;64502;59.976;30.316;2022-12-20T10:35:25;101268.50;;;-4.78;62.86
75855;BME280;64502;59.976;30.316;2022-12-20T10:38:09;101274.50;;;-4.78;63.17
75855;BME280;64502;59.976;30.316;2022-12-20T10:43:07;101270.09;;;-4.86;63.62
75855;BME280;64502;59.976;30.316;2022-12-20T10:45:41;101263.25;;;-4.87;63.76
75855;BME280;64502;59.976;30.316;2022-12-20T10:51:12;101255.53;;;-4.86;64.51
75855;BME280;64502;59.976;30.316;2022-12-20T10:56:17;101251.31;;;-4.82;64.13
75855;BME280;64502;59.976;30.316;2022-12-20T10:59:02;101250.44;;;-4.81;63.88
75855;BME280;64502;59.976;30.316;2022-12-20T11:01:34;101243.56;;;-4.84;63.63
75855;BME280;64502;59.976;30.316;2022-12-20T11:04:03;101240.97;;;-4.85;64.19
75855;BME280;64502;59.976;30.316;2022-12-20T11:06:49;101242.69;;;-4.84;62.79
75855;BME280;64502;59.976;30.316;2022-12-20T11:12:04;101247.81;;;-4.87;64.75
75855;BME280;64502;59.976;30.316;2022-12-20T11:14:31;101240.88;;;-4.93;63.17
75855;BME280;64502;59.976;30.316;2022-12-20T11:16:58;101246.84;;;-4.96;64.43
75855;BME280;64502;59.976;30.316;2022-12-20T11:19:40;101245.16;;;-4.92;65.09
75855;BME280;64502;59.976;30.316;2022-12-20T11:24:51;101236.63;;;-4.89;63.90
75855;BME280;64502;59.976;30.316;2022-12-20T11:27:30;101247.81;;;-4.86;63.90
75855;BME280;64502;59.976;30.316;2022-12-20T11:41:23;101245.97;;;-4.95;62.78
75855;BME280;64502;59.976;30.316;2022-12-20T11:44:00;101248.50;;;-4.99;63.86
75855;BME280;64502;59.976;30.316;2022-12-20T11:54:52;101235.75;;;-4.90;63.88
75855;BME280;64502;59.976;30.316;2022-12-20T11:57:28;101220.31;;;-4.88;63.34
75855;BME280;64502;59.976;30.316;2022-12-20T11:59:57;101223.00;;;-4.82;63.73
75855;BME280;64502;59.976;30.316;2022-12-20T12:02:37;101223.84;;;-4.82;64.18
75855;BME280;64502;59.976;30.316;2022-12-20T12:05:24;101226.50;;;-4.77;64.55
75855;BME280;64502;59.976;30.316;2022-12-20T12:08:16;101221.38;;;-4.73;63.86
75855;BME280;64502;59.976;30.316;2022-12-20T12:10:57;101216.25;;;-4.70;63.97
75855;BME280;64502;59.976;30.316;2022-12-20T12:13:26;101217.19;;;-4.66;64.16
75855;BME280;64502;59.976;30.316;2022-12-20T12:16:26;101220.63;;;-4.64;64.68
75855;BME280;64502;59.976;30.316;2022-12-20T12:18:51;101222.34;;;-4.64;63.89
75855;BME280;64502;59.976;30.316;2022-12-20T12:21:30;101222.34;;;-4.66;63.80
75855;BME280;64502;59.976;30.316;2022-12-20T12:26:51;101236.03;;;-4.67;64.04
75855;BME280;64502;59.976;30.316;2022-12-20T12:29:18;101229.13;;;-4.70;63.06
75855;BME280;64502;59.976;30.316;2022-12-20T12:32:20;101215.38;;;-4.73;64.00
75855;BME280;64502;59.976;30.316;2022-12-20T12:37:54;101208.38;;;-4.85;63.43
75855;BME280;64502;59.976;30.316;2022-12-20T12:46:01;101204.44;;;-5.22;63.92
75855;BME280;64502;59.976;30.316;2022-12-20T12:48:41;101204.25;;;-5.36;64.12
75855;BME280;64502;59.976;30.316;2022-12-20T12:51:08;101199.75;;;-5.51;64.46
75855;BME280;64502;59.976;30.316;2022-12-20T13:01:50;101196.84;;;-5.71;65.74
75855;BME280;64502;59.976;30.316;2022-12-20T13:09:35;101190.72;;;-5.81;66.65
75855;BME280;64502;59.976;30.316;2022-12-20T13:12:46;101194.91;;;-5.86;65.83
75855;BME280;64502;59.976;30.316;2022-12-20T13:20:21;101190.97;;;-6.17;66.56
75855;BME280;64502;59.976;30.316;2022-12-20T13:25:36;101192.28;;;-6.39;66.92
75855;BME280;64502;59.976;30.316;2022-12-20T13:30:40;101189.38;;;-6.57;66.86
75855;BME280;64502;59.976;30.316;2022-12-20T13:36:01;101171.97;;;-6.72;67.19
75855;BME280;64502;59.976;30.316;2022-12-20T13:43:58;101173.41;;;-6.85;68.26
75855;BME280;64502;59.976;30.316;2022-12-20T13:46:31;101160.53;;;-6.88;68.32
75855;BME280;64502;59.976;30.316;2022-12-20T13:49:14;101175.84;;;-6.93;68.60
75855;BME280;64502;59.976;30.316;2022-12-20T13:51:45;101168.06;;;-6.97;68.29
75855;BME280;64502;59.976;30.316;2022-12-20T13:54:17;101164.56;;;-7.01;68.49
75855;BME280;64502;59.976;30.316;2022-12-20T13:56:50;101167.91;;;-7.05;68.84
75855;BME280;64502;59.976;30.316;2022-12-20T13:59:29;101183.28;;;-7.06;68.60
75855;BME280;64502;59.976;30.316;2022-12-20T14:01:58;101188.13;;;-7.19;68.81
75855;BME280;64502;59.976;30.316;2022-12-20T14:04:25;101178.66;;;-7.21;69.01
75855;BME280;64502;59.976;30.316;2022-12-20T14:06:55;101183.72;;;-7.24;68.98
75855;BME280;64502;59.976;30.316;2022-12-20T14:09:43;101194.78;;;-7.27;69.38
75855;BME280;64502;59.976;30.316;2022-12-20T14:12:15;101202.44;;;-7.28;69.51
75855;BME280;64502;59.976;30.316;2022-12-20T14:14:47;101216.13;;;-7.28;69.73
75855;BME280;64502;59.976;30.316;2022-12-20T14:17:26;101209.31;;;-7.26;69.77
75855;BME280;64502;59.976;30.316;2022-12-20T14:20:13;101215.41;;;-7.22;70.17
75855;BME280;64502;59.976;30.316;2022-12-20T14:22:52;101220.59;;;-7.18;69.92
75855;BME280;64502;59.976;30.316;2022-12-20T14:25:42;101226.72;;;-7.12;69.69
75855;BME280;64502;59.976;30.316;2022-12-20T14:28:24;101230.97;;;-7.13;68.81
75855;BME280;64502;59.976;30.316;2022-12-20T14:30:52;101238.72;;;-7.10;69.21
75855;BME280;64502;59.976;30.316;2022-12-20T14:33:36;101233.66;;;-7.08;68.77
75855;BME280;64502;59.976;30.316;2022-12-20T14:36:21;101231.19;;;-7.04;69.26
75855;BME280;64502;59.976;30.316;2022-12-20T14:38:51;101243.19;;;-7.01;68.96
75855;BME280;64502;59.976;30.316;2022-12-20T14:41:38;101237.34;;;-6.96;69.22
75855;BME280;64502;59.976;30.316;2022-12-20T14:49:30;101228.25;;;-6.80;68.91
75855;BME280;64502;59.976;30.316;2022-12-20T14:57:32;101225.75;;;-6.78;67.28
75855;BME280;64502;59.976;30.316;2022-12-20T15:08:18;101201.13;;;-7.11;67.04
75855;BME280;64502;59.976;30.316;2022-12-20T15:13:35;101200.03;;;-7.21;67.88